createdAt,value
2023-01-13T00:01:23.784Z,6.23
2023-01-13T00:03:52.521Z,4.93
2023-01-13T00:06:23.127Z,4.50
2023-01-13T00:08:52.718Z,5.00
2023-01-13T00:11:22.402Z,12.20
2023-01-13T00:13:50.821Z,5.93
2023-01-13T00:16:21.016Z,9.37
2023-01-13T00:18:52.325Z,12.63
2023-01-13T00:21:23.132Z,7.40
2023-01-13T00:23:54.102Z,7.83
2023-01-13T00:26:24.384Z,10.47
2023-01-13T00:28:59.062Z,6.97
2023-01-13T00:31:28.757Z,14.23
2023-01-13T00:33:59.876Z,11.50
2023-01-13T00:36:29.280Z,6.57
2023-01-13T00:38:58.306Z,7.07
2023-01-13T00:41:27.873Z,8.33
2023-01-13T00:43:55.387Z,13.90
2023-01-13T00:46:24.092Z,12.50
2023-01-13T00:48:53.015Z,12.43
2023-01-13T00:51:23.423Z,10.40
2023-01-13T00:53:53.285Z,13.57
2023-01-13T00:56:40.829Z,12.80
2023-01-13T00:59:11.215Z,11.53
2023-01-13T01:01:39.956Z,11.40
2023-01-13T01:04:08.795Z,12.40
2023-01-13T01:06:38.626Z,12.27
2023-01-13T01:09:07.565Z,21.53
2023-01-13T01:11:38.245Z,11.37
2023-01-13T01:14:07.025Z,14.43
2023-01-13T01:16:35.638Z,13.40
2023-01-13T01:19:05.228Z,15.80
2023-01-13T01:21:34.805Z,15.20
2023-01-13T01:24:08.610Z,11.50
2023-01-13T01:26:37.548Z,12.13
2023-01-13T01:29:05.926Z,16.00
2023-01-13T01:31:35.019Z,22.67
2023-01-13T01:34:03.483Z,19.80
2023-01-13T01:36:32.082Z,12.40
2023-01-13T01:39:01.298Z,16.53
2023-01-13T01:41:33.151Z,13.07
2023-01-13T01:44:03.136Z,18.67
2023-01-13T01:46:34.751Z,20.13
2023-01-13T01:49:15.504Z,22.90
2023-01-13T01:51:47.485Z,18.03
2023-01-13T01:54:21.920Z,12.93
2023-01-13T01:56:52.173Z,16.90
2023-01-13T01:59:20.794Z,16.60
2023-01-13T02:01:49.808Z,19.63
2023-01-13T02:04:24.008Z,22.13
2023-01-13T02:06:54.479Z,18.23
2023-01-13T02:09:22.889Z,13.93
2023-01-13T02:12:10.263Z,21.93
2023-01-13T02:14:40.271Z,17.83
2023-01-13T02:17:20.725Z,17.53
2023-01-13T02:20:27.186Z,23.13
2023-01-13T02:23:55.074Z,16.33
2023-01-13T02:26:59.960Z,20.67
2023-01-13T02:30:08.786Z,18.70
2023-01-13T02:32:45.711Z,26.27
2023-01-13T02:35:21.263Z,21.40
2023-01-13T02:37:51.586Z,21.97
2023-01-13T02:40:25.610Z,18.97
2023-01-13T02:43:20.586Z,23.13
2023-01-13T02:45:57.205Z,19.80
2023-01-13T02:48:29.881Z,27.40
2023-01-13T02:51:03.547Z,25.67
2023-01-13T02:53:36.177Z,22.77
2023-01-13T02:56:07.895Z,24.27
2023-01-13T02:58:40.410Z,25.37
2023-01-13T03:01:10.512Z,25.40
2023-01-13T03:03:39.610Z,22.27
2023-01-13T03:06:26.560Z,23.77
2023-01-13T03:09:04.573Z,37.20
2023-01-13T03:11:40.656Z,22.17
2023-01-13T03:14:19.805Z,22.83
2023-01-13T03:17:08.297Z,22.47
2023-01-13T03:19:44.040Z,25.83
2023-01-13T03:22:28.453Z,26.33
2023-01-13T03:25:02.309Z,28.73
2023-01-13T03:27:34.448Z,28.30
2023-01-13T03:30:08.515Z,17.93
2023-01-13T03:32:41.915Z,17.47
2023-01-13T03:35:16.945Z,11.77
2023-01-13T03:37:49.157Z,11.40
2023-01-13T03:40:22.654Z,10.83
2023-01-13T03:43:14.516Z,11.53
2023-01-13T03:45:45.613Z,16.93
2023-01-13T03:48:20.651Z,12.87
2023-01-13T03:50:51.594Z,15.67
2023-01-13T03:53:24.453Z,16.17
2023-01-13T03:55:57.029Z,13.50
2023-01-13T03:58:31.209Z,9.27
2023-01-13T04:01:02.938Z,12.47
2023-01-13T04:03:41.402Z,16.50
2023-01-13T04:06:15.894Z,11.73
2023-01-13T04:08:52.921Z,11.70
2023-01-13T04:11:29.719Z,11.60
2023-01-13T04:14:00.748Z,12.53
2023-01-13T04:16:29.497Z,19.77
2023-01-13T04:18:59.593Z,14.43
2023-01-13T04:21:28.310Z,13.60
2023-01-13T04:23:56.833Z,12.13
2023-01-13T04:26:25.375Z,13.70
2023-01-13T04:28:54.833Z,16.43
2023-01-13T04:31:23.574Z,15.77
2023-01-13T04:33:52.349Z,16.93
2023-01-13T04:36:25.341Z,14.67
2023-01-13T04:38:53.947Z,15.80
2023-01-13T04:41:22.518Z,16.10
2023-01-13T04:43:52.054Z,23.17
2023-01-13T04:46:20.766Z,15.77
2023-01-13T04:48:49.270Z,14.60
2023-01-13T04:51:18.587Z,19.37
2023-01-13T04:53:48.410Z,10.13
2023-01-13T04:56:18.447Z,13.53
2023-01-13T04:58:47.400Z,10.90
2023-01-13T05:01:16.080Z,16.63
2023-01-13T05:03:44.685Z,10.40
2023-01-13T05:06:13.546Z,12.67
2023-01-13T05:08:42.391Z,17.87
2023-01-13T05:11:26.219Z,16.37
2023-01-13T05:14:12.400Z,13.57
2023-01-13T05:16:58.800Z,18.27
2023-01-13T05:19:27.374Z,9.57
2023-01-13T05:22:13.545Z,16.97
2023-01-13T05:24:59.754Z,17.43
2023-01-13T05:27:32.047Z,17.40
2023-01-13T05:30:00.630Z,16.90
2023-01-13T05:32:29.583Z,20.27
2023-01-13T05:34:58.264Z,15.30
2023-01-13T05:37:28.034Z,22.23
2023-01-13T05:40:14.354Z,19.43
2023-01-13T05:43:02.193Z,17.73
2023-01-13T05:45:32.332Z,12.73
2023-01-13T05:48:00.853Z,13.67
2023-01-13T05:50:29.357Z,11.97
2023-01-13T05:52:57.838Z,18.10
2023-01-13T05:55:26.493Z,9.87
2023-01-13T05:57:56.474Z,12.20
2023-01-13T06:00:25.292Z,16.73
2023-01-13T06:02:53.963Z,10.77
2023-01-13T06:05:22.703Z,11.67
2023-01-13T06:07:51.231Z,15.07
2023-01-13T06:10:19.781Z,14.97
2023-01-13T06:12:48.427Z,11.27
2023-01-13T06:15:18.588Z,14.37
2023-01-13T06:17:47.094Z,17.73
2023-01-13T06:20:19.068Z,12.77
2023-01-13T06:22:50.278Z,12.93
2023-01-13T06:25:26.008Z,15.37
2023-01-13T06:27:57.015Z,11.17
2023-01-13T06:30:29.244Z,15.27
2023-01-13T06:33:03.154Z,16.17
2023-01-13T06:35:35.679Z,14.50
2023-01-13T06:38:10.166Z,18.27
2023-01-13T06:40:39.058Z,15.53
2023-01-13T06:43:16.609Z,12.77
2023-01-13T06:45:51.838Z,15.07
2023-01-13T06:48:23.654Z,19.27
2023-01-13T06:50:52.211Z,20.00
2023-01-13T06:53:20.978Z,14.50
2023-01-13T06:55:49.627Z,9.37
2023-01-13T06:58:18.647Z,12.23
2023-01-13T07:00:51.671Z,18.37
2023-01-13T07:03:21.596Z,16.67
2023-01-13T07:05:54.601Z,12.63
2023-01-13T07:08:24.058Z,18.80
2023-01-13T07:10:53.080Z,13.93
2023-01-13T07:13:39.566Z,11.30
2023-01-13T07:16:11.063Z,15.30
2023-01-13T07:18:39.855Z,12.33
2023-01-13T07:21:10.549Z,16.60
2023-01-13T07:23:40.751Z,16.63
2023-01-13T07:26:13.465Z,12.33
2023-01-13T07:28:42.838Z,17.07
2023-01-13T07:31:18.483Z,13.33
2023-01-13T07:33:48.395Z,19.43
2023-01-13T07:36:19.853Z,20.13
2023-01-13T07:38:48.505Z,20.70
2023-01-13T07:41:34.613Z,19.87
2023-01-13T07:44:06.274Z,14.60
2023-01-13T07:46:35.993Z,14.77
2023-01-13T07:49:04.596Z,18.40
2023-01-13T07:51:33.461Z,14.03
2023-01-13T07:54:02.377Z,18.37
2023-01-13T07:56:31.403Z,14.57
2023-01-13T07:59:01.137Z,16.50
2023-01-13T08:01:36.666Z,21.07
2023-01-13T08:04:07.580Z,16.83
2023-01-13T08:06:37.122Z,19.47
2023-01-13T08:09:05.693Z,11.67
2023-01-13T08:11:34.454Z,16.13
2023-01-13T08:14:03.759Z,20.13
2023-01-13T08:16:34.586Z,22.70
2023-01-13T08:19:03.327Z,12.03
2023-01-13T08:21:33.446Z,16.13
2023-01-13T08:24:01.984Z,18.80
2023-01-13T08:26:30.591Z,22.87
2023-01-13T08:28:59.221Z,20.73
2023-01-13T08:31:28.016Z,20.57
2023-01-13T08:33:56.706Z,20.13
2023-01-13T08:36:25.905Z,31.20
2023-01-13T08:38:56.004Z,21.93
2023-01-13T08:41:41.039Z,22.60
2023-01-13T08:44:10.383Z,24.23
2023-01-13T08:46:39.204Z,20.10
2023-01-13T08:49:08.090Z,14.67
2023-01-13T08:51:36.568Z,17.00
2023-01-13T08:54:11.842Z,16.83
2023-01-13T08:56:42.096Z,23.73
2023-01-13T08:59:13.344Z,18.83
2023-01-13T09:01:42.710Z,19.53
2023-01-13T09:04:18.083Z,24.13
2023-01-13T09:06:46.796Z,31.30
2023-01-13T09:09:19.875Z,17.03
2023-01-13T09:12:08.815Z,17.50
2023-01-13T09:14:43.367Z,21.77
2023-01-13T09:17:12.181Z,24.67
2023-01-13T09:19:41.051Z,18.00
2023-01-13T09:22:15.876Z,19.10
2023-01-13T09:24:46.277Z,15.83
2023-01-13T09:27:16.508Z,22.03
2023-01-13T09:29:45.268Z,20.33
2023-01-13T09:32:15.475Z,17.67
2023-01-13T09:35:01.388Z,18.83
2023-01-13T09:37:31.266Z,21.93
2023-01-13T09:40:01.489Z,25.10
2023-01-13T09:42:56.456Z,21.53
2023-01-13T09:45:29.715Z,25.73
2023-01-13T09:48:06.077Z,37.83
2023-01-13T09:50:53.599Z,19.33
2023-01-13T09:53:28.206Z,27.13
2023-01-13T09:55:58.897Z,20.33
2023-01-13T09:58:28.646Z,20.23
2023-01-13T10:01:22.543Z,28.37
2023-01-13T10:03:51.499Z,21.87
2023-01-13T10:06:31.177Z,32.10
2023-01-13T10:09:00.431Z,25.53
2023-01-13T10:11:52.405Z,25.33
2023-01-13T10:14:27.845Z,15.87
2023-01-13T10:17:12.704Z,27.47
2023-01-13T10:19:49.007Z,24.50
2023-01-13T10:22:27.310Z,25.53
2023-01-13T10:25:22.405Z,29.57
2023-01-13T10:27:54.797Z,30.17
2023-01-13T10:30:31.236Z,21.53
2023-01-13T10:33:02.219Z,24.27
2023-01-13T10:36:05.704Z,19.10
2023-01-13T10:38:40.068Z,16.37
2023-01-13T10:41:19.822Z,20.87
2023-01-13T10:44:00.998Z,24.93
2023-01-13T10:46:31.371Z,28.20
2023-01-13T10:49:01.826Z,25.43
2023-01-13T10:51:32.246Z,28.90
2023-01-13T10:54:03.651Z,34.70
2023-01-13T10:56:34.581Z,20.27
2023-01-13T10:59:24.739Z,28.73
2023-01-13T11:02:03.932Z,16.53
2023-01-13T11:04:37.604Z,21.37
2023-01-13T11:07:18.935Z,20.40
2023-01-13T11:09:48.040Z,25.97
2023-01-13T11:12:33.874Z,22.87
2023-01-13T11:15:08.846Z,17.80
2023-01-13T11:17:45.600Z,23.60
2023-01-13T11:20:20.911Z,28.10
2023-01-13T11:22:53.156Z,25.13
2023-01-13T11:25:25.382Z,26.63
2023-01-13T11:31:56.884Z,16.10
2023-01-13T11:35:20.174Z,21.60
2023-01-13T11:43:00.732Z,18.23
2023-01-13T11:45:20.025Z,27.93
2023-01-13T11:47:53.741Z,24.13
2023-01-13T11:50:33.979Z,21.33
2023-01-13T11:53:29.043Z,15.70
2023-01-13T11:56:11.737Z,22.90
2023-01-13T11:59:12.622Z,17.20
2023-01-13T12:01:58.596Z,21.70
2023-01-13T12:04:37.201Z,26.80
2023-01-13T12:07:15.618Z,21.33
2023-01-13T12:09:57.611Z,27.30
2023-01-13T12:12:37.960Z,23.40
2023-01-13T12:15:33.004Z,19.60
2023-01-13T12:18:29.339Z,23.33
2023-01-13T12:21:12.595Z,18.90
2023-01-13T12:23:48.370Z,24.87
2023-01-13T12:26:18.597Z,18.50
2023-01-13T12:28:53.668Z,24.13
2023-01-13T12:31:23.341Z,21.30
2023-01-13T12:34:09.373Z,19.43
2023-01-13T12:36:53.052Z,27.27
2023-01-13T12:39:31.289Z,22.03
2023-01-13T12:42:24.889Z,19.70
2023-01-13T12:45:24.235Z,27.67
2023-01-13T12:47:52.960Z,29.37
2023-01-13T12:50:44.222Z,21.57
2023-01-13T12:53:34.470Z,21.10
2023-01-13T12:56:23.346Z,21.83
2023-01-13T12:58:51.929Z,18.27
2023-01-13T13:01:36.968Z,26.93
2023-01-13T13:04:11.537Z,28.30
2023-01-13T13:06:43.380Z,27.20
2023-01-13T13:09:22.796Z,17.67
2023-01-13T13:12:08.788Z,22.87
2023-01-13T13:15:03.920Z,22.40
2023-01-13T13:17:44.436Z,21.87
2023-01-13T13:20:50.795Z,18.73
2023-01-13T13:23:56.271Z,21.20
2023-01-13T13:26:47.404Z,24.53
2023-01-13T13:29:48.616Z,29.43
2023-01-13T13:32:53.383Z,20.00
2023-01-13T13:35:52.235Z,26.53
2023-01-13T13:38:50.683Z,29.77
2023-01-13T13:41:39.659Z,26.07
2023-01-13T13:44:34.583Z,24.73
2023-01-13T13:47:06.469Z,16.47
2023-01-13T13:49:41.391Z,21.17
2023-01-13T13:52:19.195Z,22.60
2023-01-13T13:54:50.823Z,14.33
2023-01-13T13:57:21.496Z,23.47
2023-01-13T13:59:56.221Z,22.00
2023-01-13T14:02:29.671Z,28.97
2023-01-13T14:05:21.600Z,14.73
2023-01-13T14:07:52.532Z,18.93
2023-01-13T14:10:24.950Z,19.37
2023-01-13T14:12:53.809Z,19.87
2023-01-13T14:15:33.421Z,17.13
2023-01-13T14:18:05.202Z,19.60
2023-01-13T14:20:35.833Z,14.23
2023-01-13T14:23:05.926Z,29.87
2023-01-13T14:25:39.591Z,23.47
2023-01-13T14:28:25.895Z,17.20
2023-01-13T14:30:57.625Z,19.03
2023-01-13T14:33:36.196Z,15.33
2023-01-13T14:36:17.085Z,17.20
2023-01-13T14:38:47.855Z,16.20
2023-01-13T14:41:25.179Z,19.70
2023-01-13T14:43:57.440Z,14.03
2023-01-13T14:46:38.442Z,15.63
2023-01-13T14:49:20.458Z,13.07
2023-01-13T14:51:50.922Z,11.47
2023-01-13T14:54:43.347Z,18.23
2023-01-13T14:57:17.465Z,13.27
2023-01-13T14:59:51.912Z,14.40
2023-01-13T15:02:41.595Z,7.53
2023-01-13T15:05:35.953Z,25.53
2023-01-13T15:08:18.662Z,16.27
2023-01-13T15:10:49.955Z,31.80
2023-01-13T15:13:27.868Z,18.83
2023-01-13T15:15:59.099Z,13.53
2023-01-13T15:18:29.138Z,23.60
2023-01-13T15:20:58.032Z,19.73
2023-01-13T15:23:29.022Z,14.87
2023-01-13T15:25:57.382Z,16.77
2023-01-13T15:28:27.777Z,14.27
2023-01-13T15:31:01.819Z,16.13
2023-01-13T15:33:32.219Z,16.30
2023-01-13T15:36:01.967Z,16.77
2023-01-13T15:38:30.597Z,14.60
2023-01-13T15:40:58.970Z,20.57
2023-01-13T15:43:44.534Z,18.73
2023-01-13T15:46:33.792Z,13.77
2023-01-13T15:49:09.939Z,17.60
2023-01-13T15:51:39.053Z,14.60
2023-01-13T15:54:08.085Z,20.07
2023-01-13T15:56:38.315Z,18.13
2023-01-13T15:59:15.762Z,21.70
2023-01-13T16:01:44.519Z,14.47
2023-01-13T16:04:14.466Z,23.07
2023-01-13T16:06:43.737Z,24.23
2023-01-13T16:09:14.375Z,14.43
2023-01-13T16:11:43.079Z,19.33
2023-01-13T16:14:11.565Z,17.83
2023-01-13T16:16:40.935Z,20.50
2023-01-13T16:19:11.973Z,20.90
2023-01-13T16:21:41.839Z,15.23
2023-01-13T16:24:10.233Z,15.70
2023-01-13T16:26:39.146Z,23.27
2023-01-13T16:29:08.144Z,19.00
2023-01-13T16:31:37.300Z,20.33
2023-01-13T16:34:07.198Z,15.20
2023-01-13T16:36:37.922Z,13.63
2023-01-13T16:39:21.701Z,17.03
2023-01-13T16:41:50.160Z,15.83
2023-01-13T16:44:19.153Z,18.70
2023-01-13T16:46:47.913Z,12.33
2023-01-13T16:49:17.733Z,19.80
2023-01-13T16:51:46.307Z,21.07
2023-01-13T16:54:16.198Z,15.63
2023-01-13T16:56:45.447Z,19.37
2023-01-13T16:59:15.349Z,16.80
2023-01-13T17:01:46.039Z,21.10
2023-01-13T17:04:17.213Z,17.40
2023-01-13T17:06:52.568Z,19.57
2023-01-13T17:09:24.082Z,19.37
2023-01-13T17:11:53.453Z,14.17
2023-01-13T17:14:23.588Z,14.67
2023-01-13T17:16:53.955Z,24.00
2023-01-13T17:19:24.622Z,17.67
2023-01-13T17:21:53.196Z,24.80
2023-01-13T17:24:25.770Z,19.47
2023-01-13T17:26:54.252Z,22.23
2023-01-13T17:29:25.887Z,21.27
2023-01-13T17:31:54.906Z,23.17
2023-01-13T17:34:23.588Z,13.70
2023-01-13T17:36:51.996Z,23.53
2023-01-13T17:39:24.464Z,16.13
2023-01-13T17:41:53.867Z,22.37
2023-01-13T17:44:23.830Z,19.50
2023-01-13T17:46:52.357Z,21.67
2023-01-13T17:49:22.142Z,27.40
2023-01-13T17:51:51.638Z,20.27
2023-01-13T17:54:20.645Z,17.50
2023-01-13T17:56:50.756Z,14.33
2023-01-13T17:59:20.794Z,27.03
2023-01-13T18:01:49.468Z,21.80
2023-01-13T18:04:19.258Z,17.37
2023-01-13T18:06:47.893Z,23.10
2023-01-13T18:09:17.039Z,26.83
2023-01-13T18:11:47.240Z,16.27
2023-01-13T18:14:17.845Z,18.87
2023-01-13T18:16:46.333Z,20.53
2023-01-13T18:19:32.742Z,20.90
2023-01-13T18:22:19.099Z,21.30
2023-01-13T18:25:04.709Z,20.03
2023-01-13T18:27:35.206Z,15.63
2023-01-13T18:30:07.386Z,20.03
2023-01-13T18:32:36.563Z,16.57
2023-01-13T18:35:10.144Z,17.50
2023-01-13T18:37:40.434Z,20.70
2023-01-13T18:40:11.584Z,21.77
2023-01-13T18:42:55.117Z,18.50
2023-01-13T18:45:27.069Z,19.03
2023-01-13T18:47:57.296Z,16.00
2023-01-13T18:50:26.474Z,18.87
2023-01-13T18:52:58.176Z,18.80
2023-01-13T18:55:29.460Z,21.77
2023-01-13T18:57:58.998Z,17.90
2023-01-13T19:00:36.460Z,17.17
2023-01-13T19:05:36.095Z,16.30
2023-01-13T19:08:05.623Z,22.37
2023-01-13T19:10:34.613Z,22.40
2023-01-13T19:13:06.262Z,22.00
2023-01-13T19:15:40.242Z,23.40
2023-01-13T19:18:09.962Z,21.43
2023-01-13T19:20:41.717Z,21.40
2023-01-13T19:23:11.904Z,23.07
2023-01-13T19:25:41.211Z,23.17
2023-01-13T19:28:09.772Z,20.53
2023-01-13T19:30:39.818Z,16.83
2023-01-13T19:33:08.493Z,19.67
2023-01-13T19:35:38.400Z,23.50
2023-01-13T19:38:10.050Z,18.70
2023-01-13T19:40:38.710Z,19.17
2023-01-13T19:43:25.677Z,15.83
2023-01-13T19:45:55.977Z,20.27
2023-01-13T19:48:24.497Z,19.77
2023-01-13T19:50:53.292Z,22.53
2023-01-13T19:53:21.980Z,15.83
2023-01-13T19:55:50.541Z,15.30
2023-01-13T19:58:20.395Z,25.13
2023-01-13T20:00:48.934Z,16.30
2023-01-13T20:03:24.356Z,15.80
2023-01-13T20:05:52.896Z,22.93
2023-01-13T20:08:23.299Z,22.67
2023-01-13T20:11:15.257Z,25.70
2023-01-13T20:13:46.965Z,22.90
2023-01-13T20:16:16.090Z,21.97
2023-01-13T20:18:49.600Z,19.57
2023-01-13T20:21:18.585Z,19.90
2023-01-13T20:23:54.512Z,25.70
2023-01-13T20:26:22.965Z,19.20
2023-01-13T20:28:52.900Z,20.97
2023-01-13T20:31:22.147Z,18.87
2023-01-13T20:33:52.177Z,23.57
2023-01-13T20:36:30.648Z,24.57
2023-01-13T20:39:01.436Z,20.40
2023-01-13T20:41:47.643Z,28.37
2023-01-13T20:44:16.955Z,21.63
2023-01-13T20:46:46.172Z,28.27
2023-01-13T20:49:16.824Z,31.73
2023-01-13T20:51:45.298Z,26.50
2023-01-13T20:54:13.765Z,23.50
2023-01-13T20:56:42.441Z,21.90
2023-01-13T20:59:11.545Z,15.93
2023-01-13T21:01:40.409Z,13.87
2023-01-13T21:04:09.424Z,20.40
2023-01-13T21:06:39.400Z,26.43
2023-01-13T21:09:08.011Z,18.77
2023-01-13T21:11:54.437Z,15.30
2023-01-13T21:14:42.813Z,21.33
2023-01-13T21:17:38.754Z,18.40
2023-01-13T21:20:07.964Z,24.10
2023-01-13T21:22:39.035Z,21.30
2023-01-13T21:25:08.609Z,18.07
2023-01-13T21:27:37.544Z,26.00
2023-01-13T21:30:07.495Z,27.10
2023-01-13T21:32:36.150Z,22.47
2023-01-13T21:35:05.645Z,23.80
2023-01-13T21:37:36.708Z,29.77
2023-01-13T21:40:10.284Z,22.77
2023-01-13T21:42:56.565Z,22.93
2023-01-13T21:45:41.762Z,29.10
2023-01-13T21:48:10.471Z,26.67
2023-01-13T21:50:39.660Z,26.63
2023-01-13T21:53:09.248Z,23.33
2023-01-13T21:55:39.225Z,35.27
2023-01-13T21:58:12.693Z,34.87
2023-01-13T22:00:42.854Z,27.20
2023-01-13T22:03:13.169Z,24.37
2023-01-13T22:05:42.105Z,30.53
2023-01-13T22:08:14.357Z,26.23
2023-01-13T22:10:58.578Z,26.97
2023-01-13T22:13:45.213Z,23.93
2023-01-13T22:16:13.942Z,22.90
2023-01-13T22:18:42.597Z,31.23
2023-01-13T22:21:11.213Z,26.33
2023-01-13T22:23:39.818Z,31.50
2023-01-13T22:26:12.111Z,32.30
2023-01-13T22:28:44.256Z,34.83
2023-01-13T22:31:15.100Z,35.83
2023-01-13T22:33:47.051Z,28.30
2023-01-13T22:36:16.491Z,31.37
2023-01-13T22:38:45.025Z,30.00
2023-01-13T22:41:14.998Z,34.07
2023-01-13T22:43:43.468Z,26.57
2023-01-13T22:46:14.314Z,26.90
2023-01-13T22:48:43.061Z,36.73
2023-01-13T22:51:12.973Z,33.40
2023-01-13T22:53:42.642Z,29.33
2023-01-13T22:56:17.607Z,26.57
2023-01-13T22:58:46.340Z,32.50
2023-01-13T23:01:16.978Z,33.50
2023-01-13T23:03:47.501Z,31.90
2023-01-13T23:06:17.231Z,32.37
2023-01-13T23:08:46.410Z,29.80
2023-01-13T23:11:18.524Z,40.43
2023-01-13T23:13:47.729Z,34.33
2023-01-13T23:16:18.856Z,38.73
2023-01-13T23:18:48.266Z,35.93
2023-01-13T23:21:19.365Z,24.33
2023-01-13T23:23:48.290Z,32.37
2023-01-13T23:26:18.366Z,28.70
2023-01-13T23:28:46.820Z,25.57
2023-01-13T23:31:17.074Z,30.00
2023-01-13T23:33:45.855Z,33.47
2023-01-13T23:36:16.246Z,29.40
2023-01-13T23:38:45.491Z,33.53
2023-01-13T23:41:16.719Z,30.57
2023-01-13T23:43:51.201Z,27.23
2023-01-13T23:46:20.341Z,35.87
2023-01-13T23:48:48.879Z,32.50
2023-01-13T23:51:17.351Z,24.20
2023-01-13T23:53:47.204Z,25.90
2023-01-13T23:56:17.673Z,31.83
2023-01-13T23:58:47.903Z,39.37
